sensor_id;sensor_type;location;lat;lon;timestamp;temperature;humidity
66920;DHT22;53831;52.090;17.026;2023-06-24T00:00:34;17.40;99.90
66920;DHT22;53831;52.090;17.026;2023-06-24T00:01:34;17.40;99.90
66920;DHT22;53831;52.090;17.026;2023-06-24T00:02:35;17.40;99.90
66920;DHT22;53831;52.090;17.026;2023-06-24T00:03:39;17.40;99.90
66920;DHT22;53831;52.090;17.026;2023-06-24T00:04:39;17.40;99.90
66920;DHT22;53831;52.090;17.026;2023-06-24T00:05:40;17.30;99.90
66920;DHT22;53831;52.090;17.026;2023-06-24T00:06:40;17.30;99.90
66920;DHT22;53831;52.090;17.026;2023-06-24T00:07:41;17.30;99.90
66920;DHT22;53831;52.090;17.026;2023-06-24T00:08:45;17.30;99.90
66920;DHT22;53831;52.090;17.026;2023-06-24T00:09:46;17.30;99.90
66920;DHT22;53831;52.090;17.026;2023-06-24T00:10:48;17.30;99.90
66920;DHT22;53831;52.090;17.026;2023-06-24T00:11:49;17.30;99.90
66920;DHT22;53831;52.090;17.026;2023-06-24T00:12:49;17.20;99.90
66920;DHT22;53831;52.090;17.026;2023-06-24T00:13:50;17.20;99.90
66920;DHT22;53831;52.090;17.026;2023-06-24T00:14:51;17.20;99.90
66920;DHT22;53831;52.090;17.026;2023-06-24T00:15:51;17.20;99.90
66920;DHT22;53831;52.090;17.026;2023-06-24T00:16:52;17.20;99.90
66920;DHT22;53831;52.090;17.026;2023-06-24T00:17:53;17.20;99.90
66920;DHT22;53831;52.090;17.026;2023-06-24T00:18:54;17.20;99.90
66920;DHT22;53831;52.090;17.026;2023-06-24T00:19:56;17.20;99.90
66920;DHT22;53831;52.090;17.026;2023-06-24T00:20:56;17.10;99.90
66920;DHT22;53831;52.090;17.026;2023-06-24T00:21:57;17.10;99.90
66920;DHT22;53831;52.090;17.026;2023-06-24T00:22:59;17.10;99.90
66920;DHT22;53831;52.090;17.026;2023-06-24T00:24:00;17.10;99.90
66920;DHT22;53831;52.090;17.026;2023-06-24T00:25:05;17.10;99.90
66920;DHT22;53831;52.090;17.026;2023-06-24T00:26:05;17.10;99.90
66920;DHT22;53831;52.090;17.026;2023-06-24T00:27:06;17.10;99.90
66920;DHT22;53831;52.090;17.026;2023-06-24T00:28:07;17.10;99.90
66920;DHT22;53831;52.090;17.026;2023-06-24T00:29:07;17.10;99.90
66920;DHT22;53831;52.090;17.026;2023-06-24T00:30:08;17.10;99.90
66920;DHT22;53831;52.090;17.026;2023-06-24T00:31:09;17.10;99.90
66920;DHT22;53831;52.090;17.026;2023-06-24T00:32:11;17.00;99.90
66920;DHT22;53831;52.090;17.026;2023-06-24T00:33:12;17.00;99.90
66920;DHT22;53831;52.090;17.026;2023-06-24T00:34:14;17.00;99.90
66920;DHT22;53831;52.090;17.026;2023-06-24T00:35:14;17.10;99.90
66920;DHT22;53831;52.090;17.026;2023-06-24T00:36:15;17.10;99.90
66920;DHT22;53831;52.090;17.026;2023-06-24T00:37:16;17.00;99.90
66920;DHT22;53831;52.090;17.026;2023-06-24T00:38:17;17.00;99.90
66920;DHT22;53831;52.090;17.026;2023-06-24T00:39:17;17.00;99.90
66920;DHT22;53831;52.090;17.026;2023-06-24T00:40:18;17.00;99.90
66920;DHT22;53831;52.090;17.026;2023-06-24T00:41:18;17.00;99.90
66920;DHT22;53831;52.090;17.026;2023-06-24T00:42:19;17.10;99.90
66920;DHT22;53831;52.090;17.026;2023-06-24T00:43:20;17.00;99.90
66920;DHT22;53831;52.090;17.026;2023-06-24T00:44:21;17.00;99.90
66920;DHT22;53831;52.090;17.026;2023-06-24T00:45:24;17.00;99.90
66920;DHT22;53831;52.090;17.026;2023-06-24T00:46:25;17.00;99.90
66920;DHT22;53831;52.090;17.026;2023-06-24T00:47:28;17.00;99.90
66920;DHT22;53831;52.090;17.026;2023-06-24T00:48:31;17.00;99.90
66920;DHT22;53831;52.090;17.026;2023-06-24T00:49:31;17.00;99.90
66920;DHT22;53831;52.090;17.026;2023-06-24T00:50:32;17.00;99.90
66920;DHT22;53831;52.090;17.026;2023-06-24T00:51:33;17.00;99.90
66920;DHT22;53831;52.090;17.026;2023-06-24T00:52:36;17.00;99.90
66920;DHT22;53831;52.090;17.026;2023-06-24T00:53:39;16.90;99.90
66920;DHT22;53831;52.090;17.026;2023-06-24T00:54:40;16.90;99.90
66920;DHT22;53831;52.090;17.026;2023-06-24T00:55:40;17.00;99.90
66920;DHT22;53831;52.090;17.026;2023-06-24T00:56:41;16.90;99.90
66920;DHT22;53831;52.090;17.026;2023-06-24T00:57:43;16.90;99.90
66920;DHT22;53831;52.090;17.026;2023-06-24T00:58:44;16.90;99.90
66920;DHT22;53831;52.090;17.026;2023-06-24T00:59:45;16.90;99.90
66920;DHT22;53831;52.090;17.026;2023-06-24T01:00:47;16.90;99.90
66920;DHT22;53831;52.090;17.026;2023-06-24T01:01:58;16.90;99.90
66920;DHT22;53831;52.090;17.026;2023-06-24T01:03:02;16.90;99.90
66920;DHT22;53831;52.090;17.026;2023-06-24T01:04:04;16.90;99.90
66920;DHT22;53831;52.090;17.026;2023-06-24T01:05:05;16.90;99.90
66920;DHT22;53831;52.090;17.026;2023-06-24T01:06:09;16.90;99.90
66920;DHT22;53831;52.090;17.026;2023-06-24T01:07:10;16.90;99.90
66920;DHT22;53831;52.090;17.026;2023-06-24T01:08:11;16.90;99.90
66920;DHT22;53831;52.090;17.026;2023-06-24T01:09:16;16.90;99.90
66920;DHT22;53831;52.090;17.026;2023-06-24T01:10:16;16.90;99.90
66920;DHT22;53831;52.090;17.026;2023-06-24T01:11:18;16.90;99.90
66920;DHT22;53831;52.090;17.026;2023-06-24T01:12:18;16.90;99.90
66920;DHT22;53831;52.090;17.026;2023-06-24T01:13:19;16.90;99.90
66920;DHT22;53831;52.090;17.026;2023-06-24T01:14:20;16.90;99.90
66920;DHT22;53831;52.090;17.026;2023-06-24T01:15:23;16.90;99.90
66920;DHT22;53831;52.090;17.026;2023-06-24T01:18:41;16.90;99.90
66920;DHT22;53831;52.090;17.026;2023-06-24T01:20:55;16.80;99.90
66920;DHT22;53831;52.090;17.026;2023-06-24T01:22:06;16.80;99.90
66920;DHT22;53831;52.090;17.026;2023-06-24T01:24:26;16.80;99.90
66920;DHT22;53831;52.090;17.026;2023-06-24T01:25:44;16.70;99.90
66920;DHT22;53831;52.090;17.026;2023-06-24T01:32:25;16.70;99.90
66920;DHT22;53831;52.090;17.026;2023-06-24T01:33:07;16.70;99.90
66920;DHT22;53831;52.090;17.026;2023-06-24T01:34:19;16.70;99.90
66920;DHT22;53831;52.090;17.026;2023-06-24T01:35:23;16.70;99.90
66920;DHT22;53831;52.090;17.026;2023-06-24T01:36:26;16.70;99.90
66920;DHT22;53831;52.090;17.026;2023-06-24T01:37:38;16.70;99.90
66920;DHT22;53831;52.090;17.026;2023-06-24T01:40:20;16.70;99.90
66920;DHT22;53831;52.090;17.026;2023-06-24T01:41:24;16.70;99.90
66920;DHT22;53831;52.090;17.026;2023-06-24T01:42:25;16.60;99.90
66920;DHT22;53831;52.090;17.026;2023-06-24T01:43:25;16.60;99.90
66920;DHT22;53831;52.090;17.026;2023-06-24T01:44:27;16.60;99.90
66920;DHT22;53831;52.090;17.026;2023-06-24T01:45:28;16.60;99.90
66920;DHT22;53831;52.090;17.026;2023-06-24T01:46:30;16.60;99.90
66920;DHT22;53831;52.090;17.026;2023-06-24T01:47:31;16.60;99.90
66920;DHT22;53831;52.090;17.026;2023-06-24T01:48:32;16.50;99.90
66920;DHT22;53831;52.090;17.026;2023-06-24T01:49:36;16.50;99.90
66920;DHT22;53831;52.090;17.026;2023-06-24T01:50:38;16.50;99.90
66920;DHT22;53831;52.090;17.026;2023-06-24T01:51:40;16.50;99.90
66920;DHT22;53831;52.090;17.026;2023-06-24T01:52:43;16.40;99.90
66920;DHT22;53831;52.090;17.026;2023-06-24T01:53:44;16.40;99.90
66920;DHT22;53831;52.090;17.026;2023-06-24T01:54:47;16.50;99.90
66920;DHT22;53831;52.090;17.026;2023-06-24T01:55:48;16.50;99.90
66920;DHT22;53831;52.090;17.026;2023-06-24T01:56:51;16.50;99.90
66920;DHT22;53831;52.090;17.026;2023-06-24T01:57:53;16.50;99.90
66920;DHT22;53831;52.090;17.026;2023-06-24T01:58:55;16.50;99.90
66920;DHT22;53831;52.090;17.026;2023-06-24T01:59:57;16.50;99.90
66920;DHT22;53831;52.090;17.026;2023-06-24T02:00:58;16.50;99.90
66920;DHT22;53831;52.090;17.026;2023-06-24T02:02:00;16.50;99.90
66920;DHT22;53831;52.090;17.026;2023-06-24T02:03:01;16.50;99.90
66920;DHT22;53831;52.090;17.026;2023-06-24T02:04:02;16.50;99.90
66920;DHT22;53831;52.090;17.026;2023-06-24T02:05:03;16.50;99.90
66920;DHT22;53831;52.090;17.026;2023-06-24T02:06:05;16.50;99.90
66920;DHT22;53831;52.090;17.026;2023-06-24T02:07:07;16.60;99.90
66920;DHT22;53831;52.090;17.026;2023-06-24T02:08:12;16.50;99.90
66920;DHT22;53831;52.090;17.026;2023-06-24T02:09:14;16.50;99.90
66920;DHT22;53831;52.090;17.026;2023-06-24T02:10:16;16.50;99.90
66920;DHT22;53831;52.090;17.026;2023-06-24T02:11:18;16.50;99.90
66920;DHT22;53831;52.090;17.026;2023-06-24T02:12:19;16.60;99.90
66920;DHT22;53831;52.090;17.026;2023-06-24T02:13:21;16.50;99.90
66920;DHT22;53831;52.090;17.026;2023-06-24T02:14:22;16.60;99.90
66920;DHT22;53831;52.090;17.026;2023-06-24T02:15:23;16.60;99.90
66920;DHT22;53831;52.090;17.026;2023-06-24T02:16:24;16.60;99.90
66920;DHT22;53831;52.090;17.026;2023-06-24T02:17:26;16.60;99.90
66920;DHT22;53831;52.090;17.026;2023-06-24T02:18:29;16.60;99.90
66920;DHT22;53831;52.090;17.026;2023-06-24T02:19:30;16.60;99.90
66920;DHT22;53831;52.090;17.026;2023-06-24T02:20:32;16.70;99.90
66920;DHT22;53831;52.090;17.026;2023-06-24T02:21:34;16.60;99.90
66920;DHT22;53831;52.090;17.026;2023-06-24T02:22:36;16.60;99.90
66920;DHT22;53831;52.090;17.026;2023-06-24T02:23:38;16.70;99.90
66920;DHT22;53831;52.090;17.026;2023-06-24T02:24:39;16.70;99.90
66920;DHT22;53831;52.090;17.026;2023-06-24T02:25:42;16.70;99.90
66920;DHT22;53831;52.090;17.026;2023-06-24T02:26:42;16.80;99.90
66920;DHT22;53831;52.090;17.026;2023-06-24T02:27:43;16.70;99.90
66920;DHT22;53831;52.090;17.026;2023-06-24T02:28:44;16.80;99.90
66920;DHT22;53831;52.090;17.026;2023-06-24T02:29:45;16.70;99.90
66920;DHT22;53831;52.090;17.026;2023-06-24T02:30:46;16.80;99.90
66920;DHT22;53831;52.090;17.026;2023-06-24T02:31:48;16.80;99.90
66920;DHT22;53831;52.090;17.026;2023-06-24T02:32:48;16.80;99.90
66920;DHT22;53831;52.090;17.026;2023-06-24T02:33:49;16.80;99.90
66920;DHT22;53831;52.090;17.026;2023-06-24T02:34:53;16.80;99.90
66920;DHT22;53831;52.090;17.026;2023-06-24T02:35:55;16.80;99.90
66920;DHT22;53831;52.090;17.026;2023-06-24T02:36:55;16.80;99.90
66920;DHT22;53831;52.090;17.026;2023-06-24T02:37:56;16.80;99.90
66920;DHT22;53831;52.090;17.026;2023-06-24T02:38:57;16.80;99.90
66920;DHT22;53831;52.090;17.026;2023-06-24T02:39:58;16.80;99.90
66920;DHT22;53831;52.090;17.026;2023-06-24T02:40:59;16.80;99.90
66920;DHT22;53831;52.090;17.026;2023-06-24T02:42:00;16.80;99.90
66920;DHT22;53831;52.090;17.026;2023-06-24T02:43:01;16.80;99.90
66920;DHT22;53831;52.090;17.026;2023-06-24T02:44:02;16.80;99.90
66920;DHT22;53831;52.090;17.026;2023-06-24T02:45:03;16.80;99.90
66920;DHT22;53831;52.090;17.026;2023-06-24T02:46:05;16.80;99.90
66920;DHT22;53831;52.090;17.026;2023-06-24T02:47:09;16.80;99.90
66920;DHT22;53831;52.090;17.026;2023-06-24T02:48:10;16.80;99.90
66920;DHT22;53831;52.090;17.026;2023-06-24T02:49:12;16.80;99.90
66920;DHT22;53831;52.090;17.026;2023-06-24T02:50:13;16.80;99.90
66920;DHT22;53831;52.090;17.026;2023-06-24T02:51:17;16.80;99.90
66920;DHT22;53831;52.090;17.026;2023-06-24T02:52:17;16.70;99.90
66920;DHT22;53831;52.090;17.026;2023-06-24T02:53:18;16.70;99.90
66920;DHT22;53831;52.090;17.026;2023-06-24T02:54:20;16.70;99.90
66920;DHT22;53831;52.090;17.026;2023-06-24T02:55:53;16.70;99.90
66920;DHT22;53831;52.090;17.026;2023-06-24T02:56:55;16.70;99.90
66920;DHT22;53831;52.090;17.026;2023-06-24T02:58:02;16.70;99.90
66920;DHT22;53831;52.090;17.026;2023-06-24T02:59:24;16.80;99.90
66920;DHT22;53831;52.090;17.026;2023-06-24T03:00:26;16.80;99.90
66920;DHT22;53831;52.090;17.026;2023-06-24T03:01:42;16.80;99.90
66920;DHT22;53831;52.090;17.026;2023-06-24T03:02:46;16.70;99.90
66920;DHT22;53831;52.090;17.026;2023-06-24T03:03:47;16.70;99.90
66920;DHT22;53831;52.090;17.026;2023-06-24T03:04:50;16.70;99.90
66920;DHT22;53831;52.090;17.026;2023-06-24T03:05:51;16.80;99.90
66920;DHT22;53831;52.090;17.026;2023-06-24T03:06:54;16.80;99.90
66920;DHT22;53831;52.090;17.026;2023-06-24T03:07:56;16.70;99.90
66920;DHT22;53831;52.090;17.026;2023-06-24T03:08:57;16.80;99.90
66920;DHT22;53831;52.090;17.026;2023-06-24T03:09:59;16.80;99.90
66920;DHT22;53831;52.090;17.026;2023-06-24T03:11:00;16.80;99.90
66920;DHT22;53831;52.090;17.026;2023-06-24T03:12:04;16.80;99.90
66920;DHT22;53831;52.090;17.026;2023-06-24T03:13:12;16.80;99.90
66920;DHT22;53831;52.090;17.026;2023-06-24T03:14:19;16.80;99.90
66920;DHT22;53831;52.090;17.026;2023-06-24T03:15:20;16.80;99.90
66920;DHT22;53831;52.090;17.026;2023-06-24T03:16:20;16.80;99.90
66920;DHT22;53831;52.090;17.026;2023-06-24T03:17:50;16.70;99.90
66920;DHT22;53831;52.090;17.026;2023-06-24T03:18:52;16.80;99.90
66920;DHT22;53831;52.090;17.026;2023-06-24T03:19:54;16.70;99.90
66920;DHT22;53831;52.090;17.026;2023-06-24T03:20:54;16.70;99.90
66920;DHT22;53831;52.090;17.026;2023-06-24T03:21:57;16.70;99.90
66920;DHT22;53831;52.090;17.026;2023-06-24T03:22:58;16.70;99.90
66920;DHT22;53831;52.090;17.026;2023-06-24T03:23:59;16.70;99.90
66920;DHT22;53831;52.090;17.026;2023-06-24T03:25:01;16.70;99.90
66920;DHT22;53831;52.090;17.026;2023-06-24T03:26:02;16.70;99.90
66920;DHT22;53831;52.090;17.026;2023-06-24T03:27:03;16.70;99.90
66920;DHT22;53831;52.090;17.026;2023-06-24T03:28:11;16.70;99.90
66920;DHT22;53831;52.090;17.026;2023-06-24T03:29:16;16.70;99.90
66920;DHT22;53831;52.090;17.026;2023-06-24T03:30:32;16.70;99.90
66920;DHT22;53831;52.090;17.026;2023-06-24T03:31:33;16.70;99.90
66920;DHT22;53831;52.090;17.026;2023-06-24T03:32:33;16.70;99.90
66920;DHT22;53831;52.090;17.026;2023-06-24T03:33:37;16.70;99.90
66920;DHT22;53831;52.090;17.026;2023-06-24T03:34:37;16.70;99.90
66920;DHT22;53831;52.090;17.026;2023-06-24T03:35:38;16.70;99.90
66920;DHT22;53831;52.090;17.026;2023-06-24T03:36:39;16.70;99.90
66920;DHT22;53831;52.090;17.026;2023-06-24T03:37:41;16.70;99.90
66920;DHT22;53831;52.090;17.026;2023-06-24T03:38:41;16.70;99.90
66920;DHT22;53831;52.090;17.026;2023-06-24T03:39:42;16.70;99.90
66920;DHT22;53831;52.090;17.026;2023-06-24T03:40:43;16.70;99.90
66920;DHT22;53831;52.090;17.026;2023-06-24T03:41:44;16.70;99.90
66920;DHT22;53831;52.090;17.026;2023-06-24T03:42:45;16.70;99.90
66920;DHT22;53831;52.090;17.026;2023-06-24T03:43:46;16.70;99.90
66920;DHT22;53831;52.090;17.026;2023-06-24T03:44:47;16.70;99.90
66920;DHT22;53831;52.090;17.026;2023-06-24T03:45:47;16.70;99.90
66920;DHT22;53831;52.090;17.026;2023-06-24T03:46:48;16.70;99.90
66920;DHT22;53831;52.090;17.026;2023-06-24T03:47:49;16.70;99.90
66920;DHT22;53831;52.090;17.026;2023-06-24T03:48:50;16.70;99.90
66920;DHT22;53831;52.090;17.026;2023-06-24T03:49:52;16.80;99.90
66920;DHT22;53831;52.090;17.026;2023-06-24T03:50:55;16.70;99.90
66920;DHT22;53831;52.090;17.026;2023-06-24T03:51:56;16.80;99.90
66920;DHT22;53831;52.090;17.026;2023-06-24T03:52:56;16.80;99.90
66920;DHT22;53831;52.090;17.026;2023-06-24T03:53:57;16.80;99.90
66920;DHT22;53831;52.090;17.026;2023-06-24T03:54:57;16.80;99.90
66920;DHT22;53831;52.090;17.026;2023-06-24T03:55:59;16.80;99.90
66920;DHT22;53831;52.090;17.026;2023-06-24T03:57:01;16.80;99.90
66920;DHT22;53831;52.090;17.026;2023-06-24T03:58:02;16.70;99.90
66920;DHT22;53831;52.090;17.026;2023-06-24T03:59:03;16.70;99.90
66920;DHT22;53831;52.090;17.026;2023-06-24T04:00:03;16.70;99.90
66920;DHT22;53831;52.090;17.026;2023-06-24T04:01:17;16.60;99.90
66920;DHT22;53831;52.090;17.026;2023-06-24T04:02:20;16.60;99.90
66920;DHT22;53831;52.090;17.026;2023-06-24T04:03:23;16.60;99.90
66920;DHT22;53831;52.090;17.026;2023-06-24T04:04:26;16.50;99.90
66920;DHT22;53831;52.090;17.026;2023-06-24T04:05:26;16.50;99.90
66920;DHT22;53831;52.090;17.026;2023-06-24T04:06:27;16.50;99.90
66920;DHT22;53831;52.090;17.026;2023-06-24T04:07:28;16.50;99.90
66920;DHT22;53831;52.090;17.026;2023-06-24T04:08:31;16.50;99.90
66920;DHT22;53831;52.090;17.026;2023-06-24T04:09:34;16.50;99.90
66920;DHT22;53831;52.090;17.026;2023-06-24T04:10:38;16.50;99.90
66920;DHT22;53831;52.090;17.026;2023-06-24T04:11:38;16.50;99.90
66920;DHT22;53831;52.090;17.026;2023-06-24T04:12:39;16.50;99.90
66920;DHT22;53831;52.090;17.026;2023-06-24T04:13:40;16.50;99.90
66920;DHT22;53831;52.090;17.026;2023-06-24T04:14:41;16.40;99.90
66920;DHT22;53831;52.090;17.026;2023-06-24T04:15:42;16.50;99.90
66920;DHT22;53831;52.090;17.026;2023-06-24T04:16:42;16.40;99.90
66920;DHT22;53831;52.090;17.026;2023-06-24T04:17:43;16.40;99.90
66920;DHT22;53831;52.090;17.026;2023-06-24T04:18:43;16.40;99.90
66920;DHT22;53831;52.090;17.026;2023-06-24T04:19:44;16.50;99.90
66920;DHT22;53831;52.090;17.026;2023-06-24T04:20:45;16.40;99.90
66920;DHT22;53831;52.090;17.026;2023-06-24T04:21:46;16.40;99.90
66920;DHT22;53831;52.090;17.026;2023-06-24T04:22:47;16.40;99.90
66920;DHT22;53831;52.090;17.026;2023-06-24T04:23:47;16.40;99.90
66920;DHT22;53831;52.090;17.026;2023-06-24T04:24:48;16.50;99.90
66920;DHT22;53831;52.090;17.026;2023-06-24T04:25:49;16.50;99.90
66920;DHT22;53831;52.090;17.026;2023-06-24T04:26:49;16.50;99.90
66920;DHT22;53831;52.090;17.026;2023-06-24T04:27:52;16.40;99.90
66920;DHT22;53831;52.090;17.026;2023-06-24T04:28:52;16.50;99.90
66920;DHT22;53831;52.090;17.026;2023-06-24T04:29:53;16.50;99.90
66920;DHT22;53831;52.090;17.026;2023-06-24T04:30:54;16.50;99.90
66920;DHT22;53831;52.090;17.026;2023-06-24T04:31:55;16.50;99.90
66920;DHT22;53831;52.090;17.026;2023-06-24T04:32:56;16.60;99.90
66920;DHT22;53831;52.090;17.026;2023-06-24T04:33:56;16.60;99.90
66920;DHT22;53831;52.090;17.026;2023-06-24T04:34:58;16.60;99.90
66920;DHT22;53831;52.090;17.026;2023-06-24T04:36:01;16.60;99.90
66920;DHT22;53831;52.090;17.026;2023-06-24T04:37:01;16.60;99.90
66920;DHT22;53831;52.090;17.026;2023-06-24T04:38:02;16.60;99.90
66920;DHT22;53831;52.090;17.026;2023-06-24T04:39:03;16.60;99.90
66920;DHT22;53831;52.090;17.026;2023-06-24T04:40:03;16.70;99.90
66920;DHT22;53831;52.090;17.026;2023-06-24T04:41:04;16.70;99.90
66920;DHT22;53831;52.090;17.026;2023-06-24T04:42:05;16.70;99.90
66920;DHT22;53831;52.090;17.026;2023-06-24T04:43:06;16.70;99.90
66920;DHT22;53831;52.090;17.026;2023-06-24T04:44:06;16.70;99.90
66920;DHT22;53831;52.090;17.026;2023-06-24T04:45:07;16.70;99.90
66920;DHT22;53831;52.090;17.026;2023-06-24T04:46:07;16.70;99.90
66920;DHT22;53831;52.090;17.026;2023-06-24T04:47:09;16.70;99.90
66920;DHT22;53831;52.090;17.026;2023-06-24T04:48:10;16.70;99.90
66920;DHT22;53831;52.090;17.026;2023-06-24T04:49:10;16.70;99.90
66920;DHT22;53831;52.090;17.026;2023-06-24T04:50:12;16.70;99.90
66920;DHT22;53831;52.090;17.026;2023-06-24T04:51:12;16.70;99.90
66920;DHT22;53831;52.090;17.026;2023-06-24T04:52:13;16.70;99.90
66920;DHT22;53831;52.090;17.026;2023-06-24T04:53:13;16.70;99.90
66920;DHT22;53831;52.090;17.026;2023-06-24T04:54:14;16.70;99.90
66920;DHT22;53831;52.090;17.026;2023-06-24T04:55:15;16.70;99.90
66920;DHT22;53831;52.090;17.026;2023-06-24T04:56:16;16.70;99.90
66920;DHT22;53831;52.090;17.026;2023-06-24T04:57:23;16.80;99.90
66920;DHT22;53831;52.090;17.026;2023-06-24T04:58:24;16.80;99.90
66920;DHT22;53831;52.090;17.026;2023-06-24T04:59:25;16.80;99.90
66920;DHT22;53831;52.090;17.026;2023-06-24T05:00:25;16.90;99.90
66920;DHT22;53831;52.090;17.026;2023-06-24T05:01:26;16.90;99.90
66920;DHT22;53831;52.090;17.026;2023-06-24T05:02:26;16.90;99.90
66920;DHT22;53831;52.090;17.026;2023-06-24T05:03:27;17.00;99.90
66920;DHT22;53831;52.090;17.026;2023-06-24T05:04:27;17.00;99.90
66920;DHT22;53831;52.090;17.026;2023-06-24T05:05:28;17.00;99.90
66920;DHT22;53831;52.090;17.026;2023-06-24T05:06:29;17.10;99.90
66920;DHT22;53831;52.090;17.026;2023-06-24T05:07:29;17.10;99.90
66920;DHT22;53831;52.090;17.026;2023-06-24T05:08:30;17.20;99.90
66920;DHT22;53831;52.090;17.026;2023-06-24T05:09:31;17.30;99.90
66920;DHT22;53831;52.090;17.026;2023-06-24T05:10:31;17.30;99.90
66920;DHT22;53831;52.090;17.026;2023-06-24T05:11:32;17.40;99.90
66920;DHT22;53831;52.090;17.026;2023-06-24T05:12:32;17.50;99.90
66920;DHT22;53831;52.090;17.026;2023-06-24T05:13:33;17.60;99.90
66920;DHT22;53831;52.090;17.026;2023-06-24T05:14:34;17.60;99.90
66920;DHT22;53831;52.090;17.026;2023-06-24T05:15:35;17.70;99.90
66920;DHT22;53831;52.090;17.026;2023-06-24T05:16:35;17.70;99.90
66920;DHT22;53831;52.090;17.026;2023-06-24T05:17:36;17.80;99.90
66920;DHT22;53831;52.090;17.026;2023-06-24T05:18:37;17.80;99.90
66920;DHT22;53831;52.090;17.026;2023-06-24T05:19:37;17.80;99.90
66920;DHT22;53831;52.090;17.026;2023-06-24T05:20:38;17.70;99.90
66920;DHT22;53831;52.090;17.026;2023-06-24T05:21:38;17.80;99.90
66920;DHT22;53831;52.090;17.026;2023-06-24T05:22:39;17.80;99.90
66920;DHT22;53831;52.090;17.026;2023-06-24T05:23:40;17.80;99.90
66920;DHT22;53831;52.090;17.026;2023-06-24T05:24:40;17.80;99.90
66920;DHT22;53831;52.090;17.026;2023-06-24T05:25:41;17.80;99.90
66920;DHT22;53831;52.090;17.026;2023-06-24T05:26:42;17.80;99.90
66920;DHT22;53831;52.090;17.026;2023-06-24T05:27:42;17.80;99.90
66920;DHT22;53831;52.090;17.026;2023-06-24T05:28:44;17.80;99.90
66920;DHT22;53831;52.090;17.026;2023-06-24T05:29:45;17.90;99.90
66920;DHT22;53831;52.090;17.026;2023-06-24T05:30:46;17.90;99.90
66920;DHT22;53831;52.090;17.026;2023-06-24T05:31:46;17.90;99.90
66920;DHT22;53831;52.090;17.026;2023-06-24T05:32:47;17.90;99.90
66920;DHT22;53831;52.090;17.026;2023-06-24T05:33:48;17.80;99.90
66920;DHT22;53831;52.090;17.026;2023-06-24T05:34:49;17.70;99.90
66920;DHT22;53831;52.090;17.026;2023-06-24T05:36:00;17.80;99.90
66920;DHT22;53831;52.090;17.026;2023-06-24T05:37:00;17.80;99.90
66920;DHT22;53831;52.090;17.026;2023-06-24T05:38:01;17.70;99.90
66920;DHT22;53831;52.090;17.026;2023-06-24T05:39:02;17.80;99.90
66920;DHT22;53831;52.090;17.026;2023-06-24T05:40:02;17.80;99.90
66920;DHT22;53831;52.090;17.026;2023-06-24T05:41:06;17.90;99.90
66920;DHT22;53831;52.090;17.026;2023-06-24T05:42:07;17.90;99.90
66920;DHT22;53831;52.090;17.026;2023-06-24T05:43:07;17.90;99.90
66920;DHT22;53831;52.090;17.026;2023-06-24T05:44:08;18.00;99.90
66920;DHT22;53831;52.090;17.026;2023-06-24T05:45:10;17.90;99.90
66920;DHT22;53831;52.090;17.026;2023-06-24T05:46:11;17.90;99.90
66920;DHT22;53831;52.090;17.026;2023-06-24T05:47:12;18.00;99.90
66920;DHT22;53831;52.090;17.026;2023-06-24T05:48:13;18.00;99.90
66920;DHT22;53831;52.090;17.026;2023-06-24T05:49:14;18.00;99.90
66920;DHT22;53831;52.090;17.026;2023-06-24T05:50:15;18.00;99.90
66920;DHT22;53831;52.090;17.026;2023-06-24T05:51:16;18.00;99.90
66920;DHT22;53831;52.090;17.026;2023-06-24T05:52:16;18.00;99.90
66920;DHT22;53831;52.090;17.026;2023-06-24T05:53:17;18.00;99.90
66920;DHT22;53831;52.090;17.026;2023-06-24T05:54:17;18.00;99.90
66920;DHT22;53831;52.090;17.026;2023-06-24T05:55:18;18.00;99.90
66920;DHT22;53831;52.090;17.026;2023-06-24T05:56:19;18.10;99.90
66920;DHT22;53831;52.090;17.026;2023-06-24T05:57:20;18.20;99.90
66920;DHT22;53831;52.090;17.026;2023-06-24T05:58:21;18.20;99.90
66920;DHT22;53831;52.090;17.026;2023-06-24T05:59:21;18.20;99.90
66920;DHT22;53831;52.090;17.026;2023-06-24T06:00:22;18.30;99.90
66920;DHT22;53831;52.090;17.026;2023-06-24T06:01:22;18.30;99.90
66920;DHT22;53831;52.090;17.026;2023-06-24T06:02:23;18.40;99.90
66920;DHT22;53831;52.090;17.026;2023-06-24T06:03:24;18.40;99.90
66920;DHT22;53831;52.090;17.026;2023-06-24T06:04:24;18.50;99.90
66920;DHT22;53831;52.090;17.026;2023-06-24T06:05:25;18.50;99.90
66920;DHT22;53831;52.090;17.026;2023-06-24T06:06:25;18.60;99.90
66920;DHT22;53831;52.090;17.026;2023-06-24T06:07:26;18.60;99.90
66920;DHT22;53831;52.090;17.026;2023-06-24T06:08:27;18.60;99.90
66920;DHT22;53831;52.090;17.026;2023-06-24T06:09:27;18.60;99.90
66920;DHT22;53831;52.090;17.026;2023-06-24T06:10:28;18.60;99.90
66920;DHT22;53831;52.090;17.026;2023-06-24T06:11:28;18.60;99.90
66920;DHT22;53831;52.090;17.026;2023-06-24T06:12:29;18.60;99.90
66920;DHT22;53831;52.090;17.026;2023-06-24T06:13:30;18.60;99.90
66920;DHT22;53831;52.090;17.026;2023-06-24T06:14:30;18.60;99.90
66920;DHT22;53831;52.090;17.026;2023-06-24T06:15:31;18.60;99.90
66920;DHT22;53831;52.090;17.026;2023-06-24T06:16:31;18.60;99.90
66920;DHT22;53831;52.090;17.026;2023-06-24T06:17:32;18.60;99.90
66920;DHT22;53831;52.090;17.026;2023-06-24T06:18:33;18.60;99.90
66920;DHT22;53831;52.090;17.026;2023-06-24T06:19:34;18.60;99.90
66920;DHT22;53831;52.090;17.026;2023-06-24T06:20:34;18.60;99.90
66920;DHT22;53831;52.090;17.026;2023-06-24T06:21:36;18.60;99.90
66920;DHT22;53831;52.090;17.026;2023-06-24T06:22:37;18.50;99.90
66920;DHT22;53831;52.090;17.026;2023-06-24T06:23:38;18.60;99.90
66920;DHT22;53831;52.090;17.026;2023-06-24T06:24:39;18.60;99.90
66920;DHT22;53831;52.090;17.026;2023-06-24T06:25:39;18.70;99.90
66920;DHT22;53831;52.090;17.026;2023-06-24T06:26:44;18.70;99.90
66920;DHT22;53831;52.090;17.026;2023-06-24T06:27:44;18.70;99.90
66920;DHT22;53831;52.090;17.026;2023-06-24T06:28:45;18.60;99.90
66920;DHT22;53831;52.090;17.026;2023-06-24T06:29:47;18.70;99.90
66920;DHT22;53831;52.090;17.026;2023-06-24T06:30:48;18.70;99.90
66920;DHT22;53831;52.090;17.026;2023-06-24T06:31:48;18.70;99.90
66920;DHT22;53831;52.090;17.026;2023-06-24T06:32:49;18.70;99.90
66920;DHT22;53831;52.090;17.026;2023-06-24T06:33:50;18.70;99.90
66920;DHT22;53831;52.090;17.026;2023-06-24T06:34:51;18.80;99.90
66920;DHT22;53831;52.090;17.026;2023-06-24T06:35:51;18.80;99.90